Terminal Aerodrome Forecast
Issued by NWS Memphis, TN

Home | Current Version | Previous Version | Text Only | Print | Product List | Glossary On
Versions: 1 2 3 4 5 6 7 8 9 10 11 12 13 14 15 16
000
FTUS44 KMEG 021730
TAFMKL
TAF
KMKL 021730Z 0218/0318 24015G25KT P6SM VCTS BKN040CB BKN150
      TEMPO 0220/0224 3SM TSRA BKN025CB
     FM030100 25007KT P6SM VCTS BKN040CB BKN250
      TEMPO 0307/0311 3SM TSRA BKN025CB
     FM031500 24010KT P6SM VCTS BKN040CB OVC250=

USA.gov is the U.S. government's official web portal to all federal, state and local government web resources and services.